Time,TemperatureF,DewpointF,PressureIn,WindDirection,WindDirectionDegrees,WindSpeedMPH,WindSpeedGustMPH,Humidity,HourlyPrecipIn,Conditions,Clouds,dailyrainin,SolarRadiationWatts/m^2,SoftwareType,DateUTC
2013-09-03 00:43:00,70.0,53.0,-100.00,NW,323,6.0,8.0,53,-99.99,,,-99.99,0.000000,,2013-09-03 06:43:00,
2013-09-03 01:42:00,72.0,53.0,-100.00,NW,312,5.0,7.0,52,-99.99,,,-99.99,0.000000,,2013-09-03 07:42:00,
2013-09-03 02:11:00,72.0,54.0,-100.00,West,270,2.0,4.0,53,-99.99,,,-99.99,0.000000,,2013-09-03 08:11:00,
2013-09-03 02:42:00,73.0,54.0,-100.00,SSW,209,2.0,3.0,51,-99.99,,,-99.99,0.000000,,2013-09-03 08:42:00,
2013-09-03 02:52:00,73.0,55.0,-100.00,SW,215,2.0,3.0,52,-99.99,,,-99.99,0.000000,,2013-09-03 08:52:00,
2013-09-03 03:11:00,74.0,55.0,-100.00,NW,308,1.0,2.0,52,-99.99,,,-99.99,0.000000,,2013-09-03 09:11:00,
2013-09-03 03:43:00,73.0,56.0,-100.00,NW,318,2.0,4.0,55,-99.99,,,-99.99,0.000000,,2013-09-03 09:43:00,
2013-09-03 04:13:00,72.0,55.0,-100.00,NW,325,1.0,3.0,55,-99.99,,,-99.99,0.000000,,2013-09-03 10:13:00,
2013-09-03 04:42:00,72.0,55.0,-100.00,WNW,289,1.0,3.0,53,-99.99,,,-99.99,0.000000,,2013-09-03 10:42:00,
2013-09-03 04:53:00,72.0,55.0,-100.00,WNW,294,2.0,4.0,55,-99.99,,,-99.99,0.000000,,2013-09-03 10:53:00,
2013-09-03 05:12:00,72.0,54.0,-100.00,WNW,292,2.0,3.0,54,-99.99,,,-99.99,0.000000,,2013-09-03 11:12:00,
2013-09-03 05:43:00,70.0,55.0,-100.00,WNW,288,1.0,4.0,57,-99.99,,,-99.99,0.000000,,2013-09-03 11:43:00,
2013-09-03 06:42:00,71.0,54.0,-100.00,West,272,2.0,4.0,55,-99.99,,,-99.99,0.000000,,2013-09-03 12:42:00,
2013-09-03 06:52:00,71.0,54.0,-100.00,West,278,3.0,6.0,55,-99.99,,,-99.99,0.000000,,2013-09-03 12:52:00,
2013-09-03 07:02:00,71.0,54.0,-100.00,West,278,3.0,6.0,55,-99.99,,,-99.99,0.000000,,2013-09-03 13:02:00,
2013-09-03 07:42:00,70.0,55.0,-100.00,WNW,283,2.0,4.0,59,-99.99,,,-99.99,14.640000,,2013-09-03 13:42:00,
2013-09-03 08:11:00,73.0,55.0,-100.00,SW,231,1.0,3.0,53,-99.99,,,-99.99,99.019997,,2013-09-03 14:11:00,
2013-09-03 08:42:00,75.0,54.0,-100.00,SSE,166,5.0,8.0,48,-99.99,,,-99.99,186.889999,,2013-09-03 14:42:00,
2013-09-03 09:43:00,76.0,54.0,-100.00,SSE,162,8.0,12.0,47,-99.99,,,-99.99,447.690002,,2013-09-03 15:43:00,
2013-09-03 10:43:00,76.0,55.0,-100.00,SE,139,9.0,16.0,47,-99.99,,,-99.99,599.010010,,2013-09-03 16:43:00,
2013-09-03 11:13:00,77.0,56.0,-100.00,SSE,159,8.0,13.0,47,-99.99,,,-99.99,629.690002,,2013-09-03 17:13:00,
2013-09-03 11:43:00,78.0,55.0,-100.00,SE,132,6.0,13.0,45,-99.99,,,-99.99,718.950012,,2013-09-03 17:43:00,
2013-09-03 11:52:00,79.0,55.0,-100.00,ESE,108,7.0,13.0,42,-99.99,,,-99.99,775.429993,,2013-09-03 17:52:00,
2013-09-03 12:02:00,79.0,55.0,-100.00,ESE,108,7.0,13.0,42,-99.99,,,-99.99,775.429993,,2013-09-03 18:02:00,
2013-09-03 13:11:00,82.0,49.0,-100.00,SE,143,7.0,18.0,31,-99.99,,,-99.99,842.380005,,2013-09-03 19:11:00,
2013-09-03 13:22:00,82.0,49.0,-100.00,SE,143,7.0,18.0,31,-99.99,,,-99.99,842.380005,,2013-09-03 19:22:00,
2013-09-03 13:42:00,83.0,46.0,-100.00,SSE,151,7.0,16.0,27,-99.99,,,-99.99,847.260010,,2013-09-03 19:42:00,
2013-09-03 14:42:00,84.0,46.0,-100.00,SE,132,9.0,18.0,26,-99.99,,,-99.99,820.059998,,2013-09-03 20:42:00,
2013-09-03 14:53:00,84.0,44.0,-100.00,SSE,149,9.0,23.0,24,-99.99,,,-99.99,810.299988,,2013-09-03 20:53:00,
2013-09-03 15:01:00,84.0,44.0,-100.00,SSE,149,9.0,23.0,24,-99.99,,,-99.99,810.299988,,2013-09-03 21:01:00,
2013-09-03 15:44:00,85.0,45.0,-100.00,South,173,10.0,18.0,25,-99.99,,,-99.99,739.169983,,2013-09-03 21:44:00,
2013-09-03 15:54:00,85.0,44.0,-100.00,SE,143,10.0,20.0,24,-99.99,,,-99.99,714.770020,,2013-09-03 21:54:00,
2013-09-03 16:13:00,85.0,44.0,-100.00,SE,145,8.0,18.0,24,-99.99,,,-99.99,610.169983,,2013-09-03 22:13:00,
2013-09-03 16:43:00,85.0,45.0,-100.00,SSE,149,10.0,19.0,24,-99.99,,,-99.99,508.359985,,2013-09-03 22:43:00,
2013-09-03 17:12:00,86.0,44.0,-100.00,SSE,155,9.0,17.0,23,-99.99,,,-99.99,521.609985,,2013-09-03 23:12:00,
2013-09-03 17:42:00,86.0,42.0,-100.00,SSE,155,12.0,19.0,21,-99.99,,,-99.99,399.570007,,2013-09-03 23:42:00,
2013-09-03 18:22:00,86.0,40.0,-100.00,SE,128,11.0,19.0,20,-99.99,,,-99.99,277.540009,,2013-09-04 00:22:00,
2013-09-03 18:42:00,85.0,41.0,-100.00,SSE,150,10.0,17.0,21,-99.99,,,-99.99,225.940002,,2013-09-04 00:42:00,
2013-09-03 21:44:00,75.0,40.0,-100.00,NNW,335,2.0,5.0,28,-99.99,,,-99.99,0.000000,,2013-09-04 03:44:00,
2013-09-03 22:44:00,74.0,42.0,-100.00,NNW,337,3.0,6.0,31,-99.99,,,-99.99,0.000000,,2013-09-04 04:44:00,
2013-09-03 23:43:00,75.0,45.0,-100.00,SSE,156,3.0,7.0,34,-99.99,,,-99.99,0.000000,,2013-09-04 05:43:00,